Startpagina
METAR-TAF:

METAR-TAF

Vliegvelden :

East Midlands Airport

East Midlands, Engeland

breedte: 52-50N, lengte: 001-20W, hoogte: 94 m

Actueel weer

Dit bericht is 41 minuten geleden gemaakt, om 05:20 UTC
Wind 4 kt uit het noordwesten
Temperatuur 10°C
Vochtigheid 82%
Druk 1022 hPa
Zicht 10 km of meer
geen wolken onder 1500 m en geen cumulonimbus

METAR: EGNX 020520Z 31004KT CAVOK 10/07 Q1022

Tijdstip: 07:01 (06:01 UTC)

Verwachting

Dit bericht is 6 uur en het 14 minuten geleden gemaakt, om 23:47 UTC
Verwachting geldig van 02 om 06 UTC tot 03 om 06 UTC
Wind 5 kt uit het noorden
Zicht 10 km of meer
Weinig wolken op 4000 ft
Tijdelijke
van 03 om 00 UTC tot 03 om 06 UTC
Zicht: 6000 m
Gebroken wolken op 1000 ft
regen

TAF: EGNX 012347Z 0206/0306 36005KT 9999 FEW040 TEMPO 0300/0306 6000 RA BKN010

Waarnemingen en weersverwachtingen van meer dan 4000 vliegvelden (METAR en TAF).

De beschikbare stations zijn de gele en rode punten op de kaart.

Ga met uw muis naar het station om de naam te zien.

Klik dan om waarnemingen en weersverwachtingen te zien.

kaart wijzigen: klik op de groene knoppen met een zwart kruis om in te zoomen, op de groene knop met een streepje om uit te zoomen of op de groene pijlen voor aangrenzende kaarten.


METAR-TAF: